Time;durP1;ratioP1;P1;durP2;ratioP2;P2;SDS_P1;SDS_P2;PMS_P1;PMS_P2;Temp;Humidity;BMP_temperature;BMP_pressure;BME280_temperature;BME280_humidity;BME280_pressure;Samples;Min_cycle;Max_cycle;Signal;HPM_P1;HPM_P2
2022/11/16 00:01:50;;;;;;;12.23;6.97;;;8.80;63.90;;;;;;5087281;27;46552;-65
2022/11/16 00:04:15;;;;;;;9.77;6.30;;;8.80;63.50;;;;;;5088285;27;46366;-64
2022/11/16 00:06:41;;;;;;;11.00;6.60;;;9.00;64.60;;;;;;5082558;27;46530;-65
2022/11/16 00:09:21;;;;;;;9.00;6.50;;;9.00;64.60;;;;;;5083439;27;46494;-64
2022/11/16 00:11:52;;;;;;;10.77;6.20;;;9.00;64.60;;;;;;5082825;27;46392;-64
2022/11/16 00:14:19;;;;;;;11.70;6.67;;;9.00;63.50;;;;;;5084431;27;45921;-63
2022/11/16 00:16:45;;;;;;;12.03;7.20;;;9.00;64.70;;;;;;5083795;27;46484;-64
2022/11/16 00:19:11;;;;;;;11.20;7.33;;;9.00;64.60;;;;;;5117349;27;46502;-64
2022/11/16 00:21:37;;;;;;;15.10;6.47;;;9.00;64.60;;;;;;5083726;27;45883;-65
2022/11/16 00:24:04;;;;;;;9.73;6.10;;;9.00;63.50;;;;;;5086720;27;46727;-64
2022/11/16 00:26:30;;;;;;;10.73;6.30;;;9.00;64.60;;;;;;5084960;27;47370;-65
2022/11/16 00:28:55;;;;;;;10.20;6.80;;;9.00;64.60;;;;;;5083454;27;45941;-64
2022/11/16 00:31:22;;;;;;;11.03;7.33;;;9.10;64.60;;;;;;5083522;27;46531;-64
2022/11/16 00:33:48;;;;;;;11.00;6.63;;;9.00;63.50;;;;;;5081389;27;46520;-64
2022/11/16 00:36:14;;;;;;;11.70;6.20;;;9.10;64.70;;;;;;5085210;27;46387;-65
2022/11/16 00:38:40;;;;;;;10.70;7.10;;;9.10;64.60;;;;;;5086234;27;46406;-64
2022/11/16 00:41:07;;;;;;;14.30;6.53;;;9.10;64.20;;;;;;5083161;27;45827;-65
2022/11/16 00:43:33;;;;;;;10.70;6.10;;;9.00;63.50;;;;;;5085688;27;47373;-65
2022/11/16 00:45:59;;;;;;;11.63;6.97;;;9.00;64.60;;;;;;5084762;27;46422;-65
2022/11/16 00:48:25;;;;;;;13.00;8.03;;;9.00;64.60;;;;;;5085009;27;46665;-64
2022/11/16 00:50:51;;;;;;;11.10;6.67;;;9.00;64.60;;;;;;5084847;27;46458;-65
2022/11/16 00:53:18;;;;;;;13.97;7.20;;;9.00;63.50;;;;;;5085905;27;46666;-65
2022/11/16 00:55:44;;;;;;;8.93;6.33;;;9.00;64.60;;;;;;5081975;27;46660;-68
2022/11/16 00:58:11;;;;;;;9.83;6.17;;;8.90;65.10;;;;;;5084358;27;46447;-65
2022/11/16 01:00:37;;;;;;;10.03;6.67;;;8.80;65.50;;;;;;5086902;27;46315;-64
2022/11/16 01:03:03;;;;;;;13.10;6.50;;;8.70;64.90;;;;;;5084492;27;45827;-65
2022/11/16 01:05:29;;;;;;;13.27;6.13;;;8.70;66.00;;;;;;5082716;27;47080;-64
2022/11/16 01:07:56;;;;;;;11.93;6.43;;;8.80;65.90;;;;;;5082391;27;46554;-65
2022/11/16 01:10:23;;;;;;;10.30;5.63;;;8.80;65.70;;;;;;5113782;27;46517;-65
2022/11/16 01:12:49;;;;;;;10.17;6.23;;;8.80;64.30;;;;;;5083793;27;46330;-65
2022/11/16 01:15:17;;;;;;;11.33;6.67;;;8.80;65.40;;;;;;5083500;27;46407;-64
2022/11/16 01:17:43;;;;;;;11.07;6.47;;;8.80;65.20;;;;;;5085074;27;46428;-64
2022/11/16 01:20:14;;;;;;;11.40;7.03;;;9.20;66.00;;;;;;5084546;27;46554;-65
2022/11/16 01:22:40;;;;;;;17.10;6.63;;;8.60;65.20;;;;;;5080635;27;46444;-63
2022/11/16 01:25:07;;;;;;;10.80;6.87;;;8.60;66.40;;;;;;5085526;27;46029;-67
2022/11/16 01:27:33;;;;;;;9.73;6.90;;;8.60;66.40;;;;;;5086913;27;46085;-64
2022/11/16 01:29:58;;;;;;;8.40;5.90;;;8.70;66.10;;;;;;5085782;27;46366;-65
2022/11/16 01:32:24;;;;;;;10.33;6.87;;;8.70;65.60;;;;;;5082800;27;46354;-64
2022/11/16 01:34:50;;;;;;;13.63;7.03;;;8.70;65.90;;;;;;5082806;27;46586;-65
2022/11/16 01:37:17;;;;;;;10.63;7.23;;;8.60;65.90;;;;;;5114189;27;46432;-66
2022/11/16 01:39:42;;;;;;;11.33;6.70;;;8.60;66.00;;;;;;5084234;27;46514;-64
2022/11/16 01:42:19;;;;;;;12.53;7.40;;;8.50;65.70;;;;;;5086931;27;46548;-64
2022/11/16 01:44:45;;;;;;;12.33;7.90;;;8.50;66.60;;;;;;5082611;27;47318;-65
2022/11/16 01:47:13;;;;;;;12.20;7.33;;;8.40;66.50;;;;;;5088969;27;46259;-65
2022/11/16 01:49:44;;;;;;;14.77;7.57;;;8.40;66.70;;;;;;5089946;27;45891;-64
2022/11/16 01:52:17;;;;;;;13.73;7.67;;;10.00;65.60;;;;;;5085217;27;46453;-66
2022/11/16 01:54:45;;;;;;;15.23;6.67;;;8.50;66.10;;;;;;5085004;27;47485;-65
2022/11/16 01:57:17;;;;;;;10.30;6.43;;;8.50;66.00;;;;;;5089418;27;45874;-63
2022/11/16 01:59:44;;;;;;;9.63;6.90;;;8.50;66.00;;;;;;5085629;27;46457;-64
2022/11/16 02:02:10;;;;;;;12.37;7.67;;;8.50;65.40;;;;;;5083110;27;46708;-64
2022/11/16 02:04:36;;;;;;;12.07;6.40;;;8.60;66.30;;;;;;5083567;27;46457;-63
2022/11/16 02:09:52;;;;;;;14.07;7.93;;;8.60;66.00;;;;;;5090162;27;46106;-67
2022/11/16 02:10:54;;;;;;;12.97;7.57;;;8.40;66.40;;;;;;5087965;27;46464;-65
2022/11/16 02:13:44;;;;;;;16.90;6.80;;;8.40;65.90;;;;;;5089074;27;46532;-64
2022/11/16 02:16:21;;;;;;;14.93;7.77;;;8.50;66.80;;;;;;5090870;27;47897;-67
2022/11/16 02:18:56;;;;;;;12.00;7.63;;;8.60;66.20;;;;;;5083395;27;46514;-64
2022/11/16 02:21:40;;;;;;;15.67;7.67;;;8.60;66.20;;;;;;5085378;27;46446;-65
2022/11/16 02:24:36;;;;;;;17.53;7.93;;;8.70;64.90;;;;;;5086238;27;46808;-65
2022/11/16 02:27:01;;;;;;;15.63;8.53;;;8.60;66.20;;;;;;5086482;27;46665;-64
2022/11/16 02:29:38;;;;;;;14.57;8.00;;;8.60;66.50;;;;;;5085637;27;46714;-63
2022/11/16 02:32:20;;;;;;;11.10;7.60;;;8.50;65.80;;;;;;5088909;27;46434;-66
2022/11/16 02:34:55;;;;;;;15.47;7.60;;;8.50;66.70;;;;;;5080979;27;46917;-66
2022/11/16 02:37:24;;;;;;;18.23;8.37;;;8.50;66.70;;;;;;5087174;27;46706;-65
2022/11/16 02:39:57;;;;;;;13.40;7.43;;;8.50;66.70;;;;;;5087975;27;46415;-64
2022/11/16 02:42:40;;;;;;;13.13;7.97;;;8.60;65.20;;;;;;5085882;27;46427;-64
2022/11/16 02:45:09;;;;;;;12.97;8.20;;;8.70;66.40;;;;;;5084720;27;46508;-66
2022/11/16 02:47:37;;;;;;;17.70;8.50;;;8.70;66.20;;;;;;5083573;27;48330;-65
2022/11/16 02:50:11;;;;;;;13.60;7.97;;;8.80;65.90;;;;;;5085358;27;46384;-65
2022/11/16 02:52:37;;;;;;;17.60;7.60;;;8.80;65.00;;;;;;5084351;27;46455;-64
2022/11/16 02:55:03;;;;;;;13.47;7.57;;;8.80;66.00;;;;;;5085721;27;46623;-65
2022/11/16 02:57:41;;;;;;;15.03;7.27;;;8.80;65.90;;;;;;5088126;27;46598;-66
2022/11/16 03:00:14;;;;;;;11.10;7.87;;;8.80;65.80;;;;;;5115954;27;46519;-65
2022/11/16 03:03:08;;;;;;;18.40;8.23;;;8.80;65.70;;;;;;5086694;27;46382;-63
2022/11/16 03:05:49;;;;;;;12.40;8.00;;;8.80;65.80;;;;;;5087504;27;46310;-64
2022/11/16 03:08:30;;;;;;;20.23;8.20;;;8.90;65.80;;;;;;5088060;27;46829;-66
2022/11/16 03:13:46;;;;;;;12.00;7.83;;;8.80;66.10;;;;;;5081306;27;46498;-64
2022/11/16 03:16:18;;;;;;;16.00;8.07;;;8.80;66.00;;;;;;5084807;27;46435;-65
2022/11/16 03:18:45;;;;;;;15.20;7.50;;;8.80;66.20;;;;;;5083123;27;47226;-65
2022/11/16 03:21:24;;;;;;;12.67;7.20;;;8.80;66.20;;;;;;5084046;27;46446;-64
2022/11/16 03:23:50;;;;;;;11.97;7.57;;;8.80;65.50;;;;;;5079031;27;46582;-66
2022/11/16 03:26:21;;;;;;;9.70;6.87;;;8.80;66.60;;;;;;5083581;27;46534;-64
2022/11/16 03:28:50;;;;;;;10.93;7.40;;;8.80;66.70;;;;;;5081670;27;46521;-66
2022/11/16 03:31:26;;;;;;;13.90;8.20;;;8.80;66.70;;;;;;5084519;27;46480;-63
2022/11/16 03:33:56;;;;;;;13.60;7.63;;;8.80;65.60;;;;;;5085975;27;46545;-63
2022/11/16 03:36:24;;;;;;;13.53;7.50;;;8.80;66.80;;;;;;5080709;27;46306;-63
2022/11/16 03:38:51;;;;;;;12.97;8.30;;;8.80;67.00;;;;;;5083913;27;47180;-64
2022/11/16 03:41:21;;;;;;;15.67;7.27;;;8.70;67.10;;;;;;5085805;27;46415;-64
2022/11/16 03:43:48;;;;;;;14.90;9.10;;;8.70;66.10;;;;;;5080576;27;46549;-64
2022/11/16 03:46:16;;;;;;;14.33;8.17;;;8.70;67.30;;;;;;5084011;27;47223;-65
2022/11/16 03:48:41;;;;;;;13.27;8.50;;;8.70;67.20;;;;;;5085749;27;46659;-64
2022/11/16 03:51:09;;;;;;;12.57;7.73;;;8.70;67.10;;;;;;5087377;27;46694;-64
2022/11/16 03:53:35;;;;;;;13.87;8.63;;;8.80;66.10;;;;;;5085028;27;46427;-65
2022/11/16 03:56:01;;;;;;;20.70;9.07;;;8.80;67.10;;;;;;5087774;27;46492;-65
2022/11/16 03:58:27;;;;;;;14.53;8.07;;;8.80;67.00;;;;;;5085252;27;47187;-64
2022/11/16 04:00:53;;;;;;;13.40;8.20;;;8.80;67.10;;;;;;5085783;27;45869;-63
2022/11/16 04:03:19;;;;;;;19.70;9.40;;;8.90;66.20;;;;;;5083282;27;46625;-63
2022/11/16 04:25:21;;;;;;;18.50;10.23;;;8.90;67.40;;;;;;5084881;27;46818;-64
2022/11/16 04:37:47;;;;;;;19.00;10.40;;;8.90;67.50;;;;;;5085036;27;46092;-64
2022/11/16 04:38:48;;;;;;;274.40;107.73;;;9.00;67.50;;;;;;5082682;27;46521;-66
2022/11/16 04:43:57;;;;;;;23.50;13.43;;;9.20;66.40;;;;;;5081858;27;46433;-67
2022/11/16 04:49:07;;;;;;;22.90;12.40;;;9.20;67.80;;;;;;5083899;27;46470;-67
2022/11/16 04:51:33;;;;;;;21.80;13.30;;;9.30;68.00;;;;;;5084997;27;47627;-65
2022/11/16 04:53:59;;;;;;;24.17;12.60;;;9.30;67.10;;;;;;5084828;27;46524;-67
2022/11/16 04:56:24;;;;;;;22.47;12.67;;;9.30;68.20;;;;;;5082712;27;46566;-66
2022/11/16 04:58:50;;;;;;;22.00;12.23;;;9.30;68.30;;;;;;5082022;27;46483;-66
2022/11/16 05:01:15;;;;;;;20.00;11.30;;;9.30;68.30;;;;;;5085251;27;47124;-67
2022/11/16 05:03:41;;;;;;;16.87;10.60;;;9.30;67.40;;;;;;5084261;27;46487;-67
2022/11/16 05:06:06;;;;;;;20.30;11.13;;;9.30;68.40;;;;;;5090014;27;45936;-67
2022/11/16 05:08:32;;;;;;;18.47;11.70;;;9.40;68.50;;;;;;5083651;27;46596;-65
2022/11/16 05:10:58;;;;;;;17.40;10.70;;;9.40;68.50;;;;;;5084737;27;46380;-66
2022/11/16 05:13:23;;;;;;;16.70;11.07;;;9.40;68.50;;;;;;5083260;27;46444;-68
2022/11/16 05:15:49;;;;;;;15.87;9.53;;;9.40;68.70;;;;;;5086764;27;46488;-67
2022/11/16 05:18:14;;;;;;;17.90;10.70;;;9.40;68.80;;;;;;5114921;27;46482;-66
2022/11/16 05:26:08;;;;;;;14.67;9.03;;;9.50;68.90;;;;;;5086991;27;46451;-65
2022/11/16 05:28:33;;;;;;;12.27;8.00;;;9.50;68.80;;;;;;5087138;27;46452;-67
2022/11/16 05:30:59;;;;;;;11.83;8.37;;;9.60;68.60;;;;;;5071800;27;48052;-65
2022/11/16 05:33:25;;;;;;;10.60;8.10;;;9.60;67.10;;;;;;5087401;27;46487;-67
2022/11/16 05:35:51;;;;;;;18.30;8.83;;;9.60;68.10;;;;;;5091614;27;46412;-66
2022/11/16 05:38:18;;;;;;;22.37;10.50;;;9.60;68.00;;;;;;5086597;27;46653;-67
2022/11/16 05:40:43;;;;;;;26.13;14.40;;;9.60;68.10;;;;;;5086181;27;46513;-66
2022/11/16 05:43:09;;;;;;;15.00;9.20;;;9.60;68.20;;;;;;5089606;27;46466;-68
2022/11/16 05:45:34;;;;;;;16.60;8.17;;;9.60;68.40;;;;;;5085845;27;46512;-66
2022/11/16 05:48:00;;;;;;;17.27;9.87;;;9.60;69.60;;;;;;5090440;27;46650;-66
2022/11/16 05:50:26;;;;;;;13.77;9.03;;;9.60;68.50;;;;;;5086855;27;49004;-67
2022/11/16 05:52:51;;;;;;;15.90;8.80;;;9.50;67.60;;;;;;5087499;27;46439;-67
2022/11/16 05:55:17;;;;;;;14.40;8.60;;;9.50;68.70;;;;;;5084723;27;46400;-68
2022/11/16 05:57:43;;;;;;;13.00;8.80;;;9.50;68.80;;;;;;5088751;27;46364;-66
2022/11/16 06:00:09;;;;;;;21.90;13.67;;;9.60;68.70;;;;;;5086130;27;46565;-66
2022/11/16 06:02:35;;;;;;;21.70;13.40;;;9.70;68.00;;;;;;5086487;27;46417;-68
2022/11/16 06:05:01;;;;;;;20.97;10.80;;;9.60;68.90;;;;;;5079786;27;46617;-68
2022/11/16 06:07:26;;;;;;;22.87;10.03;;;9.70;69.00;;;;;;5088618;27;46176;-66
2022/11/16 06:09:52;;;;;;;15.30;9.10;;;9.80;69.20;;;;;;5090370;27;47246;-66
2022/11/16 06:12:17;;;;;;;16.20;9.57;;;9.90;68.50;;;;;;5084138;27;46426;-68
2022/11/16 06:14:43;;;;;;;21.43;11.50;;;9.90;69.50;;;;;;5087435;27;46390;-66
2022/11/16 06:17:13;;;;;;;17.07;10.57;;;9.90;69.50;;;;;;5087596;27;46649;-66
2022/11/16 06:19:39;;;;;;;17.40;10.67;;;10.10;68.70;;;;;;5087715;27;46538;-67
2022/11/16 06:22:05;;;;;;;17.33;11.00;;;10.10;67.60;;;;;;5086982;27;46530;-66
2022/11/16 06:24:30;;;;;;;17.07;11.43;;;10.10;68.60;;;;;;5084025;27;46902;-66
2022/11/16 06:26:56;;;;;;;14.40;10.30;;;10.10;68.50;;;;;;5083497;27;46647;-67
2022/11/16 06:29:22;;;;;;;16.17;11.30;;;10.00;68.50;;;;;;5087013;27;47057;-66
2022/11/16 06:31:47;;;;;;;20.97;11.97;;;10.00;68.70;;;;;;5086037;27;46574;-68
2022/11/16 06:34:13;;;;;;;20.50;12.23;;;9.90;68.80;;;;;;5085416;27;46444;-65
2022/11/16 06:36:39;;;;;;;18.40;11.70;;;9.90;70.00;;;;;;5087727;27;46448;-68
2022/11/16 06:39:04;;;;;;;15.23;10.47;;;10.70;69.70;;;;;;5087550;27;46325;-68
2022/11/16 06:41:31;;;;;;;16.33;10.63;;;9.90;69.90;;;;;;5086400;27;46446;-67
2022/11/16 06:43:57;;;;;;;15.07;8.77;;;9.90;68.80;;;;;;5086900;27;46375;-66
2022/11/16 06:46:23;;;;;;;14.80;9.80;;;9.90;70.00;;;;;;5080533;27;46414;-65
2022/11/16 06:48:49;;;;;;;18.40;9.43;;;9.90;70.10;;;;;;5083669;27;48384;-66
2022/11/16 06:51:15;;;;;;;14.53;9.90;;;9.80;70.10;;;;;;5082755;27;46423;-66
2022/11/16 06:53:41;;;;;;;15.00;10.13;;;9.80;69.10;;;;;;5084186;27;46617;-66
2022/11/16 06:56:06;;;;;;;20.13;10.27;;;9.80;69.20;;;;;;5084979;27;46489;-67
2022/11/16 06:58:32;;;;;;;26.00;13.37;;;9.80;70.30;;;;;;5086114;27;47431;-66
2022/11/16 07:01:05;;;;;;;25.53;14.53;;;9.80;70.30;;;;;;5086167;27;46471;-69
2022/11/16 07:03:31;;;;;;;19.67;12.30;;;9.80;69.10;;;;;;5086132;27;46502;-67
2022/11/16 07:05:57;;;;;;;38.50;29.00;;;9.90;70.20;;;;;;5083925;27;46505;-68
2022/11/16 07:08:22;;;;;;;17.53;12.37;;;9.90;70.20;;;;;;5088951;27;47517;-69
2022/11/16 07:10:48;;;;;;;23.53;13.60;;;9.90;70.20;;;;;;5086645;27;46466;-66
2022/11/16 07:13:13;;;;;;;17.17;11.37;;;9.90;69.30;;;;;;5088474;27;46444;-69
2022/11/16 07:15:39;;;;;;;16.53;12.27;;;9.90;70.40;;;;;;5089526;27;46688;-65
2022/11/16 07:18:06;;;;;;;15.30;10.80;;;10.00;68.30;;;;;;5087062;27;46440;-64
2022/11/16 07:20:33;;;;;;;19.83;9.83;;;10.00;69.50;;;;;;5084205;27;45881;-67
2022/11/16 07:23:00;;;;;;;13.40;8.63;;;10.00;68.50;;;;;;5083051;27;46683;-68
2022/11/16 07:25:25;;;;;;;17.47;9.70;;;10.10;70.80;;;;;;5083277;27;46275;-65
2022/11/16 07:27:51;;;;;;;17.40;10.40;;;10.10;69.70;;;;;;5084249;27;46690;-66
2022/11/16 07:30:17;;;;;;;15.00;10.10;;;10.00;69.80;;;;;;5087135;27;46404;-66
2022/11/16 07:32:43;;;;;;;14.67;10.23;;;10.10;69.00;;;;;;5082564;27;46713;-66
2022/11/16 07:35:09;;;;;;;12.67;8.30;;;10.10;70.00;;;;;;5084789;27;46615;-66
2022/11/16 07:37:34;;;;;;;16.00;9.60;;;10.10;69.90;;;;;;5086287;27;47590;-67
2022/11/16 07:40:00;;;;;;;13.40;9.27;;;10.20;70.00;;;;;;5085364;27;46037;-65
2022/11/16 07:42:26;;;;;;;13.60;8.20;;;10.30;68.70;;;;;;5087096;27;46621;-66
2022/11/16 07:44:52;;;;;;;14.03;8.70;;;10.30;69.70;;;;;;5086353;27;46491;-66
2022/11/16 07:47:17;;;;;;;16.30;9.50;;;10.40;71.10;;;;;;5086534;27;47601;-66
2022/11/16 07:49:43;;;;;;;14.90;9.60;;;10.40;70.00;;;;;;5086326;27;46329;-65
2022/11/16 07:52:09;;;;;;;17.00;11.07;;;10.40;69.30;;;;;;5085112;27;46771;-64
2022/11/16 07:54:35;;;;;;;15.20;10.13;;;10.40;70.20;;;;;;5087784;27;46508;-64
2022/11/16 07:57:01;;;;;;;14.13;10.10;;;10.40;70.20;;;;;;5085571;27;46715;-67
2022/11/16 07:59:27;;;;;;;18.63;10.50;;;10.50;70.20;;;;;;5082970;27;46420;-66
2022/11/16 08:01:54;;;;;;;17.63;11.70;;;10.60;70.10;;;;;;5089199;27;46445;-69
2022/11/16 08:04:20;;;;;;;17.93;10.70;;;10.60;69.00;;;;;;5085960;27;46440;-63
2022/11/16 08:06:45;;;;;;;16.20;10.37;;;10.70;70.10;;;;;;5083010;27;46720;-65
2022/11/16 08:09:12;;;;;;;19.03;10.37;;;10.70;70.00;;;;;;5083900;27;46742;-67
2022/11/16 08:11:38;;;;;;;15.47;10.40;;;10.70;70.00;;;;;;5083091;27;46419;-67
2022/11/16 08:14:04;;;;;;;18.80;11.53;;;10.80;69.10;;;;;;5080256;27;46569;-65
2022/11/16 08:16:32;;;;;;;16.83;11.27;;;10.80;71.30;;;;;;5082713;27;46509;-66
2022/11/16 08:18:58;;;;;;;15.97;10.10;;;10.80;70.00;;;;;;5080496;27;46834;-65
2022/11/16 08:21:24;;;;;;;17.83;10.90;;;10.80;70.20;;;;;;5083298;27;46441;-66
2022/11/16 08:23:50;;;;;;;16.77;11.73;;;10.80;69.30;;;;;;5081643;27;46775;-67
2022/11/16 08:26:18;;;;;;;15.97;10.63;;;10.80;70.60;;;;;;5080097;27;47893;-66
2022/11/16 08:28:45;;;;;;;20.23;11.67;;;10.80;70.60;;;;;;5083590;27;46373;-66
2022/11/16 08:31:14;;;;;;;17.97;11.30;;;10.80;70.80;;;;;;5085143;27;46435;-65
2022/11/16 08:33:40;;;;;;;16.33;10.53;;;10.80;69.80;;;;;;5084295;27;46578;-67
2022/11/16 08:36:07;;;;;;;18.20;11.50;;;10.90;70.80;;;;;;5080464;27;46825;-66
2022/11/16 08:38:33;;;;;;;18.40;10.37;;;10.90;70.60;;;;;;5085880;27;46651;-66
2022/11/16 08:40:59;;;;;;;13.93;10.37;;;11.00;70.60;;;;;;5085007;27;46686;-65
2022/11/16 08:43:24;;;;;;;17.17;10.70;;;11.10;69.30;;;;;;5084652;27;46427;-67
2022/11/16 08:45:52;;;;;;;15.50;10.03;;;11.20;69.20;;;;;;5083794;27;47173;-66
2022/11/16 08:48:18;;;;;;;21.10;10.60;;;11.30;70.00;;;;;;5083711;27;46429;-66
2022/11/16 08:50:44;;;;;;;17.20;10.67;;;11.30;68.70;;;;;;5082829;27;46660;-65
2022/11/16 08:53:09;;;;;;;17.93;11.77;;;11.40;68.80;;;;;;5082632;27;46482;-66
2022/11/16 08:55:35;;;;;;;14.93;10.97;;;11.40;70.00;;;;;;5078890;27;47437;-68
2022/11/16 08:58:01;;;;;;;14.63;10.10;;;11.40;69.90;;;;;;5083251;27;46343;-65
2022/11/16 09:00:27;;;;;;;15.10;9.17;;;11.40;70.00;;;;;;5081337;27;46665;-67
2022/11/16 09:02:53;;;;;;;14.77;10.23;;;11.20;69.30;;;;;;5086629;27;46393;-69
2022/11/16 09:05:18;;;;;;;16.67;9.47;;;11.20;70.50;;;;;;5082217;27;46202;-66
2022/11/16 09:07:44;;;;;;;17.80;9.60;;;11.20;69.80;;;;;;5084882;27;46473;-67
2022/11/16 09:10:11;;;;;;;12.60;8.10;;;11.10;71.10;;;;;;5080180;27;46432;-65
2022/11/16 09:12:38;;;;;;;15.83;9.33;;;11.20;69.70;;;;;;5091377;27;46609;-65
2022/11/16 09:15:05;;;;;;;15.10;9.23;;;11.20;70.70;;;;;;5080387;27;46401;-66
2022/11/16 09:17:30;;;;;;;13.73;9.63;;;11.30;70.50;;;;;;5089683;27;45809;-67
2022/11/16 09:19:56;;;;;;;28.07;17.60;;;11.40;70.30;;;;;;5085135;27;46820;-67
2022/11/16 09:22:22;;;;;;;91.87;53.57;;;12.00;69.50;;;;;;5082680;27;46965;-65
2022/11/16 09:24:48;;;;;;;16.33;10.50;;;11.50;70.10;;;;;;5081678;27;47864;-65
2022/11/16 09:27:14;;;;;;;12.77;8.63;;;11.60;69.80;;;;;;5081682;27;46384;-65
2022/11/16 09:29:40;;;;;;;13.47;9.33;;;11.60;69.80;;;;;;5084559;27;46397;-65
2022/11/16 09:32:05;;;;;;;14.40;8.70;;;11.60;69.00;;;;;;5080896;27;46325;-65
2022/11/16 09:34:33;;;;;;;13.67;9.37;;;11.60;70.00;;;;;;5083096;27;47694;-66
2022/11/16 09:36:59;;;;;;;14.43;8.07;;;11.60;70.20;;;;;;5081717;27;46369;-67
2022/11/16 09:39:26;;;;;;;14.77;7.80;;;11.50;71.50;;;;;;5085139;27;46374;-65
2022/11/16 09:41:58;;;;;;;14.40;7.70;;;11.50;70.50;;;;;;5083090;27;46396;-65
2022/11/16 09:44:56;;;;;;;11.60;8.37;;;11.60;69.50;;;;;;5081010;27;47491;-64
2022/11/16 09:47:30;;;;;;;9.80;6.33;;;11.70;70.50;;;;;;5084600;27;46831;-65
2022/11/16 09:50:00;;;;;;;12.17;7.77;;;11.80;70.50;;;;;;5080988;27;46344;-67
2022/11/16 09:52:29;;;;;;;10.93;7.20;;;11.90;69.20;;;;;;5084302;27;46316;-65
2022/11/16 09:54:58;;;;;;;11.73;7.40;;;12.00;70.40;;;;;;5081940;27;46626;-68
2022/11/16 09:57:33;;;;;;;12.50;6.80;;;12.10;70.00;;;;;;5083294;27;46282;-66
2022/11/16 10:00:08;;;;;;;10.20;7.13;;;12.20;69.70;;;;;;5085784;27;46331;-66
2022/11/16 10:02:42;;;;;;;8.73;6.60;;;12.40;68.60;;;;;;5082889;27;45953;-64
2022/11/16 10:05:28;;;;;;;10.80;7.37;;;12.50;69.50;;;;;;5078993;27;46592;-66
2022/11/16 10:08:21;;;;;;;13.23;7.80;;;12.70;68.80;;;;;;5088543;27;46379;-67
2022/11/16 10:10:55;;;;;;;10.83;7.53;;;12.80;68.30;;;;;;5086504;27;46416;-65
2022/11/16 10:13:36;;;;;;;9.70;6.47;;;13.00;67.00;;;;;;5085397;27;46514;-66
2022/11/16 10:16:22;;;;;;;9.00;5.90;;;13.00;67.70;;;;;;5080341;27;46650;-66
2022/11/16 10:18:55;;;;;;;11.43;6.17;;;13.00;67.70;;;;;;5082948;27;46525;-67
2022/11/16 10:21:50;;;;;;;8.07;5.50;;;13.00;68.40;;;;;;5087362;27;46406;-67
2022/11/16 10:24:27;;;;;;;10.03;5.67;;;13.00;67.60;;;;;;5082928;27;46637;-68
2022/11/16 10:27:06;;;;;;;8.47;5.60;;;12.90;68.70;;;;;;5082666;27;47331;-67
2022/11/16 10:29:50;;;;;;;14.73;5.63;;;13.00;69.10;;;;;;5084880;27;46650;-67
2022/11/16 10:32:27;;;;;;;8.83;4.47;;;12.90;68.30;;;;;;5114187;27;46508;-68
2022/11/16 10:34:55;;;;;;;6.70;4.40;;;13.00;69.30;;;;;;5083828;27;46734;-70
2022/11/16 10:37:23;;;;;;;8.20;3.90;;;12.90;69.40;;;;;;5083997;27;47657;-67
2022/11/16 10:39:50;;;;;;;5.37;4.23;;;12.80;68.80;;;;;;5085582;27;46463;-68
2022/11/16 10:42:21;;;;;;;7.73;3.70;;;12.90;67.80;;;;;;5082371;27;46461;-68
2022/11/16 10:45:12;;;;;;;8.53;4.20;;;12.90;68.60;;;;;;5088231;27;46693;-66
2022/11/16 10:47:41;;;;;;;5.97;3.63;;;12.80;67.70;;;;;;5083604;27;47667;-69
2022/11/16 10:50:31;;;;;;;9.20;4.60;;;13.10;67.90;;;;;;5086365;27;46503;-67
2022/11/16 10:52:57;;;;;;;6.10;3.60;;;12.80;65.90;;;;;;5086456;27;46478;-66
2022/11/16 10:55:23;;;;;;;7.10;3.10;;;12.80;66.90;;;;;;5081425;27;46627;-66
2022/11/16 10:57:58;;;;;;;5.07;3.00;;;12.60;66.80;;;;;;5082783;27;46433;-67
2022/11/16 11:00:37;;;;;;;6.10;3.20;;;12.50;66.70;;;;;;5082038;27;46715;-66
2022/11/16 11:03:03;;;;;;;11.30;2.53;;;12.60;65.50;;;;;;5087877;27;46324;-66
2022/11/16 11:05:29;;;;;;;9.13;2.77;;;12.70;66.40;;;;;;5084353;27;46427;-67
2022/11/16 11:08:05;;;;;;;11.90;3.30;;;12.60;65.10;;;;;;5083840;27;47248;-66
2022/11/16 11:10:33;;;;;;;5.30;3.43;;;12.60;65.20;;;;;;5085420;27;46407;-68
2022/11/16 11:13:16;;;;;;;11.60;2.97;;;12.60;63.80;;;;;;5099235;27;46390;-64
2022/11/16 11:15:43;;;;;;;8.53;2.63;;;12.50;64.70;;;;;;5081682;27;46511;-66
2022/11/16 11:18:25;;;;;;;8.53;2.83;;;12.60;64.60;;;;;;5084675;27;46583;-66
2022/11/16 11:21:08;;;;;;;5.50;2.87;;;12.60;64.30;;;;;;5083104;27;46703;-68
2022/11/16 11:23:50;;;;;;;6.27;3.67;;;12.90;62.90;;;;;;5080631;27;46890;-67
2022/11/16 11:26:37;;;;;;;5.97;2.90;;;13.00;63.60;;;;;;5080300;27;46447;-67
2022/11/16 11:29:19;;;;;;;4.43;2.33;;;13.10;63.10;;;;;;5087434;27;46767;-65
2022/11/16 11:32:06;;;;;;;6.20;2.47;;;13.00;61.80;;;;;;5084620;27;46184;-66
2022/11/16 11:34:43;;;;;;;5.87;2.40;;;13.00;62.90;;;;;;5079683;27;46390;-69
2022/11/16 11:37:18;;;;;;;5.23;2.43;;;13.10;62.70;;;;;;5084526;27;46446;-67
2022/11/16 11:39:44;;;;;;;3.83;2.10;;;13.00;61.70;;;;;;5087650;27;46407;-68
2022/11/16 11:42:12;;;;;;;7.60;2.20;;;12.90;61.50;;;;;;5087908;27;46495;-65
2022/11/16 11:44:57;;;;;;;4.80;2.20;;;12.90;62.40;;;;;;5086115;27;46548;-65
2022/11/16 11:47:43;;;;;;;3.30;2.10;;;13.10;62.20;;;;;;5083957;27;46877;-68
2022/11/16 11:50:21;;;;;;;4.90;2.30;;;13.30;61.90;;;;;;5093234;27;47251;-66
2022/11/16 11:53:10;;;;;;;8.07;2.20;;;13.60;60.30;;;;;;5080677;27;46518;-66
2022/11/16 11:55:36;;;;;;;4.63;2.27;;;13.60;61.10;;;;;;5082628;27;46906;-67
2022/11/16 11:58:04;;;;;;;7.80;2.37;;;13.70;61.00;;;;;;5085000;27;46336;-66
2022/11/16 12:01:13;;;;;;;6.53;2.07;;;13.90;60.80;;;;;;5085912;27;46609;-66
2022/11/16 12:04:08;;;;;;;4.93;1.80;;;14.00;59.30;;;;;;5075226;27;46432;-66
2022/11/16 12:07:07;;;;;;;6.43;2.27;;;13.90;60.40;;;;;;5085738;27;46471;-67
2022/11/16 12:09:33;;;;;;;8.03;2.27;;;13.80;59.90;;;;;;5084549;27;46401;-66
2022/11/16 12:12:06;;;;;;;5.53;1.90;;;13.70;58.80;;;;;;5086056;27;47266;-68
2022/11/16 12:15:00;;;;;;;10.20;2.30;;;13.70;60.00;;;;;;5083035;27;46544;-66
2022/11/16 12:17:56;;;;;;;6.70;2.37;;;13.70;59.60;;;;;;5088275;27;46463;-67
2022/11/16 12:20:41;;;;;;;33.13;15.33;;;13.90;59.60;;;;;;5084101;27;46409;-65
2022/11/16 12:23:10;;;;;;;5.13;2.47;;;14.30;58.00;;;;;;5085801;27;46807;-67
2022/11/16 12:26:17;;;;;;;5.33;2.23;;;14.30;58.90;;;;;;5083038;27;46377;-67
2022/11/16 12:29:04;;;;;;;5.20;2.50;;;14.40;58.40;;;;;;5061750;27;46986;-66
2022/11/16 12:31:45;;;;;;;4.97;2.20;;;14.60;58.90;;;;;;5080941;27;46526;-67
2022/11/16 12:34:29;;;;;;;3.50;1.77;;;14.60;56.90;;;;;;5110760;27;49384;-66
2022/11/16 12:37:15;;;;;;;4.63;2.47;;;14.40;58.20;;;;;;5088226;27;46369;-66
2022/11/16 12:39:50;;;;;;;5.53;2.50;;;14.20;58.10;;;;;;5082292;27;46485;-66
2022/11/16 12:42:35;;;;;;;4.30;1.93;;;13.90;57.60;;;;;;5082614;27;46368;-64
2022/11/16 12:45:21;;;;;;;7.60;3.00;;;13.90;58.60;;;;;;5084195;27;47524;-64
2022/11/16 12:48:37;;;;;;;5.37;2.07;;;13.60;58.60;;;;;;5083831;27;46769;-65
2022/11/16 12:51:18;;;;;;;4.77;1.80;;;13.70;58.90;;;;;;5053888;27;46409;-65
2022/11/16 12:54:25;;;;;;;100.53;46.90;;;13.70;57.60;;;;;;5085987;27;46409;-65
2022/11/16 12:57:35;;;;;;;9.83;2.40;;;13.70;58.50;;;;;;5069544;27;47985;-66
2022/11/16 13:00:05;;;;;;;5.30;1.90;;;13.60;58.50;;;;;;5078909;27;46752;-66
2022/11/16 13:02:52;;;;;;;11.57;5.93;;;13.40;57.30;;;;;;5079747;27;46284;-66
2022/11/16 13:05:22;;;;;;;5.80;2.83;;;13.40;58.60;;;;;;5084753;27;46518;-66
2022/11/16 13:07:58;;;;;;;7.70;2.70;;;13.20;58.80;;;;;;5084508;27;46580;-66
2022/11/16 13:10:33;;;;;;;10.13;2.87;;;13.30;58.80;;;;;;5085424;27;46545;-66
2022/11/16 13:13:15;;;;;;;5.20;2.10;;;13.40;57.50;;;;;;5086147;27;46518;-66
2022/11/16 13:15:42;;;;;;;9.30;3.70;;;13.50;58.40;;;;;;5080275;27;46720;-66
2022/11/16 13:18:13;;;;;;;8.03;2.97;;;13.50;58.20;;;;;;5085794;27;47105;-68
2022/11/16 13:20:44;;;;;;;89.30;43.00;;;13.60;58.10;;;;;;5086268;27;46530;-68
2022/11/16 13:23:28;;;;;;;20.20;9.17;;;13.60;56.90;;;;;;5086880;27;46452;-67
2022/11/16 13:26:09;;;;;;;14.80;6.53;;;13.60;58.10;;;;;;5088445;27;46443;-70
2022/11/16 13:28:55;;;;;;;10.43;4.67;;;13.40;58.00;;;;;;5078926;27;47222;-66
2022/11/16 13:31:29;;;;;;;16.93;7.53;;;13.30;58.30;;;;;;5085549;27;46440;-66
2022/11/16 13:34:00;;;;;;;5.27;2.40;;;13.20;57.50;;;;;;5084141;27;46992;-67
2022/11/16 13:36:42;;;;;;;3.00;1.50;;;13.20;58.50;;;;;;5083502;27;46392;-67
2022/11/16 13:39:09;;;;;;;5.50;1.70;;;13.40;58.10;;;;;;5083324;27;46289;-67
2022/11/16 13:41:44;;;;;;;3.93;1.60;;;13.40;57.70;;;;;;5084437;27;46645;-66
2022/11/16 13:44:22;;;;;;;6.27;1.80;;;13.30;56.40;;;;;;5085452;27;46152;-66